Reno, Texas
Current Conditions -  °F | °C
As of 1:15 AM on Thursday 18 Dec 2014 (Local Time) from KPRX Reporting Station
Overcast Overcast  
Wind Chill: 34°   Ceiling: 500
Heat Index: 39°   Visibility: 10mi
Dew Point: 36°   Wind: 8mph
Humidity: 87%   Direction: 100°E
Pressure: 30.18"   Gusts: NA
Location:  33.6789°N, 95.4699°W
Report Text: KPRX 180715Z 10007KT 10SM BKN005 OVC024 04/02 A3018 RMK AO1 P0001
Loading
Personal Weather Stations






























Interactive Weather Map New forecast layout! Learn more

10-Day Weather Forecast

Advertisements
Track Severe Weather on mobile